Time;durP1;ratioP1;P1;durP2;ratioP2;P2;SDS_P1;SDS_P2;PMS_P1;PMS_P2;Temp;Humidity;BMP_temperature;BMP_pressure;BME280_temperature;BME280_humidity;BME280_pressure;Samples;Min_cycle;Max_cycle;Signal;HPM_P1;HPM_P2
2021/01/23 00:01:48;;;;;;;15.97;13.23;;;3.80;99.90;;;;;;5074157;28;20644;-76
2021/01/23 00:04:14;;;;;;;16.37;12.60;;;3.90;99.90;;;;;;5074453;28;20327;-76
2021/01/23 00:06:40;;;;;;;17.93;13.03;;;4.00;99.90;;;;;;5082943;28;20201;-76
2021/01/23 00:09:05;;;;;;;22.40;13.73;;;4.10;99.90;;;;;;5074562;28;20641;-75
2021/01/23 00:11:31;;;;;;;13.57;12.23;;;4.00;99.90;;;;;;5079698;28;20174;-75
2021/01/23 00:13:56;;;;;;;15.77;12.93;;;4.00;99.90;;;;;;5077241;28;20184;-75
2021/01/23 00:16:22;;;;;;;17.93;12.60;;;4.30;99.90;;;;;;5079700;28;20591;-76
2021/01/23 00:18:47;;;;;;;15.37;11.77;;;4.30;99.90;;;;;;5075779;28;20172;-75
2021/01/23 00:21:13;;;;;;;15.33;11.40;;;4.30;99.90;;;;;;5080166;28;20178;-76
2021/01/23 00:23:39;;;;;;;19.30;12.87;;;4.20;99.90;;;;;;5073996;28;20205;-76
2021/01/23 00:26:04;;;;;;;14.93;12.23;;;4.30;99.90;;;;;;5073805;28;20181;-75
2021/01/23 00:28:30;;;;;;;14.67;11.77;;;4.30;99.90;;;;;;5077900;28;20169;-76
2021/01/23 00:30:55;;;;;;;17.60;10.97;;;4.40;99.90;;;;;;5072367;28;20198;-75
2021/01/23 00:33:21;;;;;;;21.27;11.90;;;4.30;99.90;;;;;;5073449;28;20238;-75
2021/01/23 00:35:47;;;;;;;18.00;11.17;;;4.40;99.90;;;;;;5073336;28;20179;-76
2021/01/23 00:38:13;;;;;;;18.33;11.87;;;4.50;99.90;;;;;;5073224;28;20359;-75
2021/01/23 00:40:38;;;;;;;19.03;11.00;;;4.40;99.90;;;;;;5087746;28;20189;-75
2021/01/23 00:43:04;;;;;;;17.30;11.23;;;4.50;99.90;;;;;;5075046;28;20693;-76
2021/01/23 00:45:30;;;;;;;17.07;10.70;;;4.50;99.90;;;;;;5072336;28;20185;-75
2021/01/23 00:47:55;;;;;;;15.47;11.00;;;4.50;99.90;;;;;;5068548;28;20254;-75
2021/01/23 00:50:21;;;;;;;18.70;10.80;;;4.50;99.90;;;;;;5072409;28;20638;-75
2021/01/23 00:52:47;;;;;;;14.97;10.43;;;4.50;99.90;;;;;;5073552;28;20268;-76
2021/01/23 00:55:12;;;;;;;16.13;10.77;;;4.30;99.90;;;;;;5071945;28;20190;-75
2021/01/23 00:57:38;;;;;;;16.63;10.50;;;4.20;99.90;;;;;;5083276;28;20188;-75
2021/01/23 01:00:06;;;;;;;17.80;11.70;;;4.40;99.90;;;;;;5075611;28;20186;-75
2021/01/23 01:02:31;;;;;;;17.07;10.27;;;4.40;99.90;;;;;;5072945;28;20598;-76
2021/01/23 01:04:57;;;;;;;18.67;11.33;;;4.30;99.90;;;;;;5072057;28;20210;-76
2021/01/23 01:07:22;;;;;;;20.47;11.13;;;4.30;99.90;;;;;;5084287;28;20192;-75
2021/01/23 01:09:48;;;;;;;19.87;11.33;;;4.50;99.90;;;;;;5076853;28;20172;-76
2021/01/23 01:12:14;;;;;;;21.30;11.43;;;4.50;99.90;;;;;;5073046;28;20206;-76
2021/01/23 01:14:39;;;;;;;14.63;11.03;;;4.70;99.90;;;;;;5082455;28;20671;-76
2021/01/23 01:17:05;;;;;;;14.90;11.10;;;4.60;99.90;;;;;;5074335;28;20182;-76
2021/01/23 01:19:30;;;;;;;20.47;11.13;;;4.50;99.90;;;;;;5080480;28;20186;-75
2021/01/23 01:21:56;;;;;;;17.03;10.67;;;4.60;99.90;;;;;;5073454;28;20182;-76
2021/01/23 01:24:21;;;;;;;14.50;10.53;;;4.50;99.90;;;;;;5072566;28;20241;-76
2021/01/23 01:26:47;;;;;;;20.77;11.53;;;4.50;99.90;;;;;;5071440;28;20519;-75
2021/01/23 01:29:13;;;;;;;18.43;11.77;;;4.50;99.90;;;;;;5080565;28;20189;-75
2021/01/23 01:31:38;;;;;;;19.10;10.97;;;4.50;99.90;;;;;;5093351;28;20190;-76
2021/01/23 01:34:04;;;;;;;16.07;10.20;;;4.30;99.90;;;;;;5073134;28;20658;-75
2021/01/23 01:36:30;;;;;;;15.57;11.47;;;4.50;99.90;;;;;;5072545;28;20269;-76
2021/01/23 01:38:55;;;;;;;17.33;10.77;;;4.50;99.90;;;;;;5072418;28;20190;-76
2021/01/23 01:41:21;;;;;;;16.63;11.37;;;4.40;99.90;;;;;;5078492;28;20187;-76
2021/01/23 01:43:46;;;;;;;19.10;11.23;;;4.50;99.90;;;;;;5080891;28;20669;-75
2021/01/23 01:46:14;;;;;;;18.93;11.33;;;4.60;99.90;;;;;;5072569;28;20699;-76
2021/01/23 01:48:39;;;;;;;17.93;10.97;;;4.60;99.90;;;;;;5071219;28;20542;-75
2021/01/23 01:51:05;;;;;;;15.73;10.50;;;4.60;99.90;;;;;;5071803;28;20170;-75
2021/01/23 01:53:31;;;;;;;16.50;10.30;;;4.60;99.90;;;;;;5076615;28;20522;-76
2021/01/23 01:55:57;;;;;;;15.67;10.17;;;4.60;99.90;;;;;;5076508;28;20190;-75
2021/01/23 01:58:23;;;;;;;13.30;10.00;;;4.60;99.90;;;;;;5080075;28;20189;-75
2021/01/23 02:00:48;;;;;;;15.27;9.90;;;4.60;99.90;;;;;;5072846;28;20174;-75
2021/01/23 02:03:41;;;;;;;13.77;10.13;;;4.70;99.90;;;;;;5073592;28;20209;-75
2021/01/23 02:06:16;;;;;;;12.93;9.50;;;4.60;99.90;;;;;;5085203;28;20181;-75
2021/01/23 02:08:52;;;;;;;11.90;9.13;;;4.60;99.90;;;;;;5087385;28;20187;-75
2021/01/23 02:11:24;;;;;;;16.13;9.13;;;4.50;99.90;;;;;;5091131;28;20173;-75
2021/01/23 02:13:54;;;;;;;13.63;9.20;;;4.60;99.90;;;;;;5089590;28;20384;-75
2021/01/23 02:16:47;;;;;;;12.80;9.67;;;4.60;99.90;;;;;;5090073;28;20185;-75
2021/01/23 02:19:27;;;;;;;17.70;9.17;;;4.50;99.90;;;;;;5087944;28;20197;-76
2021/01/23 02:22:24;;;;;;;12.60;8.47;;;4.30;99.90;;;;;;5091435;28;20186;-75
2021/01/23 02:24:51;;;;;;;14.73;9.33;;;4.50;99.90;;;;;;5086497;28;20188;-75
2021/01/23 02:27:39;;;;;;;14.10;8.47;;;4.30;99.90;;;;;;5093582;28;20176;-75
2021/01/23 02:30:14;;;;;;;11.57;9.10;;;4.40;99.90;;;;;;5095247;28;20176;-75
2021/01/23 02:32:42;;;;;;;12.30;8.30;;;4.40;99.90;;;;;;5076248;28;20191;-76
2021/01/23 02:35:11;;;;;;;13.67;8.13;;;4.50;99.90;;;;;;5075790;28;20198;-75
2021/01/23 02:37:39;;;;;;;14.17;8.20;;;4.70;99.90;;;;;;5076139;28;20644;-76
2021/01/23 02:40:05;;;;;;;10.00;7.80;;;4.60;99.90;;;;;;5083071;28;20186;-75
2021/01/23 02:42:31;;;;;;;12.33;8.60;;;4.60;99.90;;;;;;5075847;28;20288;-75
2021/01/23 02:44:57;;;;;;;10.83;7.50;;;4.60;99.90;;;;;;5074533;28;20219;-76
2021/01/23 02:47:22;;;;;;;11.93;7.93;;;4.60;99.90;;;;;;5078942;28;20184;-76
2021/01/23 02:49:49;;;;;;;10.63;8.07;;;4.40;99.90;;;;;;5077488;28;20239;-75
2021/01/23 02:52:38;;;;;;;10.80;8.00;;;4.30;99.90;;;;;;5075649;28;20733;-76
2021/01/23 02:55:10;;;;;;;10.77;8.17;;;4.30;99.90;;;;;;5080869;28;20228;-76
2021/01/23 02:57:38;;;;;;;13.00;8.03;;;4.30;99.90;;;;;;5075879;28;20162;-76
2021/01/23 03:00:07;;;;;;;11.97;7.73;;;4.20;99.90;;;;;;5097413;28;20187;-75
2021/01/23 03:02:36;;;;;;;13.57;8.47;;;4.20;99.90;;;;;;5085171;28;20632;-75
2021/01/23 03:05:02;;;;;;;11.60;8.57;;;4.20;99.90;;;;;;5075336;28;20221;-76
2021/01/23 03:07:28;;;;;;;11.73;7.97;;;4.20;99.90;;;;;;5075349;28;20182;-75
2021/01/23 03:09:54;;;;;;;15.00;8.23;;;4.30;99.90;;;;;;5077526;28;20219;-76
2021/01/23 03:12:19;;;;;;;11.73;8.40;;;4.40;99.90;;;;;;5081693;28;20707;-75
2021/01/23 03:14:45;;;;;;;14.30;8.90;;;4.60;99.90;;;;;;5074142;28;20210;-75
2021/01/23 03:17:11;;;;;;;14.90;7.93;;;4.50;99.90;;;;;;5075173;28;20217;-76
2021/01/23 03:19:36;;;;;;;13.67;8.40;;;4.50;99.90;;;;;;5085895;28;20191;-75
2021/01/23 03:22:02;;;;;;;12.53;7.77;;;4.40;99.90;;;;;;5078000;28;20185;-75
2021/01/23 03:24:28;;;;;;;9.00;7.40;;;4.40;99.90;;;;;;5075038;28;20184;-75
2021/01/23 03:26:54;;;;;;;12.30;7.67;;;4.50;99.90;;;;;;5062067;28;20765;-75
2021/01/23 03:29:20;;;;;;;13.60;8.07;;;4.50;99.90;;;;;;5079632;28;20268;-75
2021/01/23 03:31:47;;;;;;;13.23;8.30;;;4.50;99.90;;;;;;5073660;28;20567;-75
2021/01/23 03:34:13;;;;;;;12.03;8.43;;;4.40;99.90;;;;;;5081353;28;20643;-75
2021/01/23 03:36:39;;;;;;;12.70;9.17;;;4.40;99.90;;;;;;5073377;28;20608;-76
2021/01/23 03:39:07;;;;;;;12.17;8.90;;;4.30;99.90;;;;;;5084616;28;20183;-75
2021/01/23 03:41:33;;;;;;;16.17;9.97;;;4.20;99.90;;;;;;5073486;28;20189;-75
2021/01/23 03:44:00;;;;;;;20.13;10.47;;;4.20;99.90;;;;;;5074837;28;20209;-75
2021/01/23 03:46:25;;;;;;;15.07;10.10;;;4.20;99.90;;;;;;5090027;28;20180;-75
2021/01/23 03:48:51;;;;;;;15.07;10.83;;;4.20;99.90;;;;;;5074820;28;20187;-75
2021/01/23 03:51:17;;;;;;;13.47;10.53;;;4.00;99.90;;;;;;5085083;28;20186;-76
2021/01/23 03:53:43;;;;;;;17.07;11.00;;;4.00;99.90;;;;;;5082760;28;20244;-75
2021/01/23 03:56:08;;;;;;;19.13;11.47;;;3.90;99.90;;;;;;5081057;28;20220;-76
2021/01/23 03:58:34;;;;;;;17.50;11.83;;;3.90;99.90;;;;;;5081033;28;20222;-76
2021/01/23 04:01:00;;;;;;;19.80;11.80;;;3.90;99.90;;;;;;5080062;28;20185;-75
2021/01/23 04:03:26;;;;;;;15.60;10.73;;;3.90;99.90;;;;;;5084180;28;20206;-75
2021/01/23 04:05:51;;;;;;;19.60;11.33;;;4.00;99.90;;;;;;5073278;28;20654;-75
2021/01/23 04:08:17;;;;;;;16.10;10.53;;;3.90;99.90;;;;;;5081225;28;20191;-75
2021/01/23 04:10:42;;;;;;;17.07;11.00;;;3.80;99.90;;;;;;5089162;28;20184;-75
2021/01/23 04:13:10;;;;;;;16.33;10.70;;;3.80;99.90;;;;;;5091288;28;20182;-75
2021/01/23 04:15:36;;;;;;;16.90;10.10;;;3.70;99.90;;;;;;5087177;28;20642;-75
2021/01/23 04:18:03;;;;;;;18.70;10.33;;;3.80;99.90;;;;;;5085062;28;20288;-76
2021/01/23 04:20:28;;;;;;;16.23;10.57;;;3.70;99.90;;;;;;5074109;28;20635;-75
2021/01/23 04:22:54;;;;;;;17.53;11.43;;;3.80;99.90;;;;;;5078151;28;20254;-75
2021/01/23 04:25:20;;;;;;;21.10;11.83;;;3.70;99.90;;;;;;5087257;28;20633;-75
2021/01/23 04:27:45;;;;;;;21.07;12.60;;;3.60;99.90;;;;;;5077657;28;20181;-75
2021/01/23 04:30:12;;;;;;;29.17;13.20;;;3.80;99.90;;;;;;5080227;28;20192;-75
2021/01/23 04:32:38;;;;;;;26.50;14.67;;;3.90;99.90;;;;;;5085910;28;20194;-75
2021/01/23 04:35:05;;;;;;;28.20;15.30;;;3.80;99.90;;;;;;5056300;28;20191;-75
2021/01/23 04:37:31;;;;;;;29.73;16.57;;;3.80;99.90;;;;;;5084249;28;20211;-75
2021/01/23 04:39:57;;;;;;;27.40;15.50;;;3.70;99.90;;;;;;5087256;28;20280;-75
2021/01/23 04:42:22;;;;;;;29.27;16.73;;;3.90;99.90;;;;;;5073366;28;21459;-75
2021/01/23 04:44:49;;;;;;;27.47;16.20;;;3.80;99.90;;;;;;5084782;28;20219;-76
2021/01/23 04:47:14;;;;;;;29.67;15.97;;;3.70;99.90;;;;;;5073669;28;20181;-75
2021/01/23 04:49:40;;;;;;;26.93;17.00;;;3.80;99.90;;;;;;5079116;28;20260;-75
2021/01/23 04:52:07;;;;;;;29.93;16.97;;;3.90;99.90;;;;;;5072213;28;20181;-75
2021/01/23 04:54:34;;;;;;;30.53;15.90;;;3.80;99.90;;;;;;5073552;28;20204;-75
2021/01/23 04:57:01;;;;;;;28.10;16.03;;;3.50;99.90;;;;;;5072111;28;20184;-75
2021/01/23 04:59:27;;;;;;;30.87;15.83;;;3.70;99.90;;;;;;5072409;28;20267;-75
2021/01/23 05:02:12;;;;;;;28.63;16.37;;;3.70;99.90;;;;;;5072247;28;20312;-75
2021/01/23 05:05:08;;;;;;;29.83;16.47;;;3.80;99.90;;;;;;5077571;28;20179;-76
2021/01/23 05:07:38;;;;;;;27.13;15.90;;;3.80;99.90;;;;;;5080522;28;20546;-75
2021/01/23 05:10:24;;;;;;;27.07;16.03;;;3.70;99.90;;;;;;5073120;28;20205;-75
2021/01/23 05:12:54;;;;;;;27.40;15.80;;;3.70;99.90;;;;;;5072335;28;20631;-75
2021/01/23 05:15:31;;;;;;;26.67;14.60;;;3.80;99.90;;;;;;5073373;28;20642;-75
2021/01/23 05:18:05;;;;;;;28.53;15.80;;;3.60;99.90;;;;;;5088940;28;20170;-75
2021/01/23 05:20:41;;;;;;;23.90;15.00;;;3.60;99.90;;;;;;5096643;28;20185;-75
2021/01/23 05:23:15;;;;;;;23.17;15.27;;;3.60;99.90;;;;;;5071352;28;20199;-75
2021/01/23 05:25:44;;;;;;;27.77;16.07;;;3.40;99.90;;;;;;5071817;28;20233;-75
2021/01/23 05:28:12;;;;;;;30.60;16.60;;;3.40;99.90;;;;;;5074159;28;20204;-75
2021/01/23 05:30:46;;;;;;;29.47;17.07;;;3.40;99.90;;;;;;5086360;28;20195;-75
2021/01/23 05:33:14;;;;;;;30.90;16.90;;;3.50;99.90;;;;;;5072577;28;20186;-75
2021/01/23 05:35:40;;;;;;;35.73;18.13;;;3.30;99.90;;;;;;5071231;28;20174;-75
2021/01/23 05:38:29;;;;;;;28.40;17.10;;;3.40;99.90;;;;;;5071606;28;20290;-75
2021/01/23 05:40:57;;;;;;;27.80;17.23;;;3.30;99.90;;;;;;5077090;28;20155;-75
2021/01/23 05:43:34;;;;;;;38.43;18.23;;;3.10;99.90;;;;;;5071540;28;20195;-76
2021/01/23 05:46:03;;;;;;;35.07;17.53;;;3.20;99.90;;;;;;5071510;28;20191;-76
2021/01/23 05:48:29;;;;;;;33.77;17.30;;;3.20;99.90;;;;;;5072753;28;20206;-75
2021/01/23 05:50:55;;;;;;;30.80;17.87;;;3.40;99.90;;;;;;5071188;28;20187;-75
2021/01/23 05:53:21;;;;;;;36.43;17.90;;;3.40;99.90;;;;;;5087194;28;20273;-75
2021/01/23 05:55:46;;;;;;;31.70;17.77;;;3.30;99.90;;;;;;5083376;28;20596;-75
2021/01/23 05:58:13;;;;;;;33.73;18.07;;;3.40;99.90;;;;;;5072528;28;20207;-75
2021/01/23 06:00:40;;;;;;;28.80;17.10;;;3.40;99.90;;;;;;5055310;28;20183;-75
2021/01/23 06:03:06;;;;;;;34.10;17.60;;;3.30;99.90;;;;;;5089688;28;20202;-75
2021/01/23 06:05:32;;;;;;;31.43;17.70;;;3.30;99.90;;;;;;5091048;28;20195;-75
2021/01/23 06:07:58;;;;;;;29.93;16.60;;;3.30;99.90;;;;;;5079240;28;20182;-75
2021/01/23 06:10:23;;;;;;;30.17;16.27;;;3.20;99.90;;;;;;5076516;28;20175;-75
2021/01/23 06:12:55;;;;;;;31.60;16.60;;;3.20;99.90;;;;;;5076801;28;20284;-75
2021/01/23 06:15:40;;;;;;;34.80;17.73;;;3.30;99.90;;;;;;5075698;28;20230;-74
2021/01/23 06:18:38;;;;;;;36.83;19.17;;;3.40;99.90;;;;;;5076418;28;20198;-75
2021/01/23 06:21:04;;;;;;;34.17;18.80;;;3.40;99.90;;;;;;5054696;28;20797;-75
2021/01/23 06:23:47;;;;;;;35.90;19.00;;;3.40;99.90;;;;;;5077294;28;20258;-75
2021/01/23 06:26:13;;;;;;;41.13;19.93;;;3.30;99.90;;;;;;5076514;28;20248;-75
2021/01/23 06:28:39;;;;;;;38.90;20.20;;;3.40;99.90;;;;;;5075028;28;20265;-75
2021/01/23 06:31:22;;;;;;;42.67;19.87;;;3.50;99.90;;;;;;5088763;28;20194;-75
2021/01/23 06:33:49;;;;;;;36.63;19.37;;;3.50;99.90;;;;;;5084359;28;20183;-76
2021/01/23 06:36:19;;;;;;;34.37;18.60;;;3.40;99.90;;;;;;5081720;28;20179;-76
2021/01/23 06:39:03;;;;;;;37.60;17.97;;;3.40;99.90;;;;;;5075059;28;20192;-75
2021/01/23 06:41:29;;;;;;;34.37;18.47;;;3.40;99.90;;;;;;5079334;28;20180;-75
2021/01/23 06:44:18;;;;;;;35.70;16.73;;;3.30;99.90;;;;;;5074893;28;20693;-76
2021/01/23 06:46:50;;;;;;;29.37;16.33;;;3.20;99.90;;;;;;5075648;28;20166;-75
2021/01/23 06:49:16;;;;;;;28.20;14.87;;;3.10;99.90;;;;;;5075884;28;20164;-75
2021/01/23 06:51:42;;;;;;;29.53;15.37;;;3.10;99.90;;;;;;5079071;28;20257;-75
2021/01/23 06:54:16;;;;;;;27.90;14.50;;;3.00;99.90;;;;;;5096220;28;20208;-76
2021/01/23 06:56:47;;;;;;;30.73;15.53;;;3.00;99.90;;;;;;5095129;28;20174;-75
2021/01/23 06:59:27;;;;;;;32.83;15.13;;;3.10;99.90;;;;;;5081674;28;20181;-75
2021/01/23 07:02:02;;;;;;;28.17;15.63;;;3.30;99.90;;;;;;5075380;28;20214;-75
2021/01/23 07:04:34;;;;;;;36.03;15.90;;;3.20;99.90;;;;;;5081765;28;20199;-75
2021/01/23 07:07:05;;;;;;;32.47;16.20;;;3.30;99.90;;;;;;5086271;28;20189;-75
2021/01/23 07:09:50;;;;;;;27.33;15.90;;;3.20;99.90;;;;;;5074374;28;20199;-75
2021/01/23 07:12:39;;;;;;;30.27;14.90;;;3.20;99.90;;;;;;5075450;28;20194;-75
2021/01/23 07:15:07;;;;;;;27.87;14.90;;;3.20;99.90;;;;;;5075507;28;20172;-75
2021/01/23 07:17:40;;;;;;;28.20;14.43;;;3.00;99.90;;;;;;5075424;28;20226;-75
2021/01/23 07:20:07;;;;;;;31.00;16.50;;;3.00;99.90;;;;;;5080161;28;20182;-75
2021/01/23 07:22:33;;;;;;;25.03;14.53;;;3.10;99.90;;;;;;5094759;28;20204;-75
2021/01/23 07:25:00;;;;;;;26.30;14.83;;;2.90;99.90;;;;;;5089546;28;20680;-76
2021/01/23 07:27:26;;;;;;;30.33;14.83;;;2.90;99.90;;;;;;5095735;28;20205;-76
2021/01/23 07:29:51;;;;;;;33.80;16.27;;;2.90;99.90;;;;;;5095327;28;20171;-75
2021/01/23 07:32:17;;;;;;;27.93;15.30;;;2.90;99.90;;;;;;5088509;28;20185;-76
2021/01/23 07:34:53;;;;;;;23.70;14.50;;;3.00;99.90;;;;;;5075220;28;20262;-75
2021/01/23 07:37:48;;;;;;;30.63;15.90;;;3.10;99.90;;;;;;5075007;28;20237;-75
2021/01/23 07:40:16;;;;;;;33.13;17.00;;;3.10;99.90;;;;;;5076116;28;20224;-75
2021/01/23 07:42:43;;;;;;;29.67;16.00;;;3.20;99.90;;;;;;5073767;28;20195;-75
2021/01/23 07:45:10;;;;;;;27.80;16.27;;;3.30;99.90;;;;;;5065034;28;20602;-75
2021/01/23 07:47:37;;;;;;;28.50;16.17;;;3.50;99.90;;;;;;5094920;28;20176;-75
2021/01/23 07:50:10;;;;;;;25.97;16.07;;;3.50;99.90;;;;;;5094229;28;20605;-75
2021/01/23 07:52:36;;;;;;;27.67;16.50;;;3.40;99.90;;;;;;5094227;28;20214;-75
2021/01/23 07:55:04;;;;;;;30.30;16.90;;;3.50;99.90;;;;;;5075220;28;20270;-75
2021/01/23 07:57:30;;;;;;;25.93;15.00;;;3.50;99.90;;;;;;5067500;28;20570;-75
2021/01/23 07:59:55;;;;;;;23.73;16.47;;;3.70;99.90;;;;;;5091195;28;20185;-74
2021/01/23 08:02:21;;;;;;;22.30;15.97;;;3.70;99.90;;;;;;5070288;28;20230;-75
2021/01/23 08:04:49;;;;;;;21.93;15.50;;;3.70;99.90;;;;;;5100552;28;20183;-75
2021/01/23 08:07:30;;;;;;;22.53;15.73;;;3.90;99.90;;;;;;5100188;28;20539;-75
2021/01/23 08:10:19;;;;;;;22.63;15.37;;;4.20;99.90;;;;;;5085948;28;20209;-75
2021/01/23 08:12:51;;;;;;;24.40;14.67;;;4.40;99.90;;;;;;5092479;28;20187;-75
2021/01/23 08:15:27;;;;;;;16.27;13.10;;;4.60;99.90;;;;;;5098702;28;20193;-75
2021/01/23 08:17:53;;;;;;;19.37;13.10;;;4.60;99.90;;;;;;5097124;28;20187;-75
2021/01/23 08:20:33;;;;;;;18.43;12.93;;;4.50;99.90;;;;;;5095405;28;20184;-75
2021/01/23 08:23:21;;;;;;;19.13;12.17;;;4.60;99.90;;;;;;5093061;28;20208;-75
2021/01/23 08:25:55;;;;;;;17.03;11.80;;;4.80;99.90;;;;;;5092776;28;20167;-75
2021/01/23 08:28:36;;;;;;;15.80;12.33;;;4.90;99.90;;;;;;5096564;28;20181;-75
2021/01/23 08:31:24;;;;;;;15.90;12.17;;;5.30;99.90;;;;;;5097939;28;20680;-75
2021/01/23 08:33:54;;;;;;;16.63;10.77;;;5.80;99.90;;;;;;5094661;28;20205;-75
2021/01/23 08:36:29;;;;;;;14.13;9.93;;;6.20;99.90;;;;;;5102599;28;20272;-75
2021/01/23 08:38:57;;;;;;;15.60;9.67;;;6.50;99.90;;;;;;5114328;28;20241;-75
2021/01/23 08:41:23;;;;;;;15.17;9.13;;;6.70;99.90;;;;;;5081223;28;20203;-75
2021/01/23 08:43:49;;;;;;;13.13;8.33;;;7.00;99.90;;;;;;5073677;28;20593;-75
2021/01/23 08:46:15;;;;;;;15.80;8.60;;;7.00;99.90;;;;;;5076262;28;20215;-75
2021/01/23 08:48:40;;;;;;;11.27;8.03;;;6.90;99.90;;;;;;5077792;28;20186;-75
2021/01/23 08:51:06;;;;;;;13.37;8.00;;;6.80;99.90;;;;;;5072287;28;20182;-75
2021/01/23 08:53:31;;;;;;;14.07;7.43;;;7.10;99.90;;;;;;5072040;28;20192;-75
2021/01/23 08:55:57;;;;;;;11.97;8.23;;;7.40;99.90;;;;;;5081285;28;20653;-75
2021/01/23 08:58:23;;;;;;;15.30;8.27;;;7.40;99.90;;;;;;5092502;28;20185;-75
2021/01/23 09:00:48;;;;;;;15.30;7.73;;;6.80;99.90;;;;;;5086809;28;20684;-75
2021/01/23 09:03:14;;;;;;;12.67;8.50;;;6.50;99.90;;;;;;5089749;28;20212;-75
2021/01/23 09:05:39;;;;;;;13.87;8.37;;;6.40;99.90;;;;;;5073229;28;20188;-75
2021/01/23 09:08:05;;;;;;;13.73;8.57;;;6.30;99.90;;;;;;5090577;28;20293;-75
2021/01/23 09:10:31;;;;;;;20.63;9.37;;;5.90;99.90;;;;;;5075150;28;20170;-75
2021/01/23 09:12:56;;;;;;;15.80;9.07;;;5.90;99.90;;;;;;5093575;28;20185;-75
2021/01/23 09:15:22;;;;;;;15.17;8.57;;;5.80;99.90;;;;;;5088969;28;20185;-75
2021/01/23 09:17:47;;;;;;;13.43;8.67;;;5.90;99.90;;;;;;5089050;28;20635;-75
2021/01/23 09:20:14;;;;;;;12.00;8.77;;;6.10;99.90;;;;;;5081162;28;20658;-76
2021/01/23 09:22:39;;;;;;;18.67;9.10;;;6.10;99.90;;;;;;5079381;28;20205;-75
2021/01/23 09:25:07;;;;;;;15.37;9.77;;;6.10;99.90;;;;;;5076865;28;20525;-75
2021/01/23 09:27:32;;;;;;;16.13;9.10;;;6.00;99.90;;;;;;5081879;28;20680;-75
2021/01/23 09:29:58;;;;;;;12.77;9.57;;;6.20;99.90;;;;;;5080612;28;20185;-75
2021/01/23 09:32:24;;;;;;;13.40;9.10;;;6.30;99.90;;;;;;5081004;28;20189;-75
2021/01/23 09:34:49;;;;;;;16.43;9.33;;;6.30;99.90;;;;;;5093112;28;20185;-76
2021/01/23 09:37:15;;;;;;;13.03;8.90;;;6.40;99.90;;;;;;5076887;28;20194;-76
2021/01/23 09:39:41;;;;;;;12.63;8.73;;;6.40;99.90;;;;;;5080669;28;20178;-76
2021/01/23 09:42:06;;;;;;;21.97;9.17;;;6.40;99.90;;;;;;5078257;28;20182;-76
2021/01/23 09:44:32;;;;;;;12.40;8.23;;;6.40;99.90;;;;;;5095196;28;20205;-75
2021/01/23 09:46:58;;;;;;;15.93;8.90;;;6.60;99.90;;;;;;5074888;28;20269;-76
2021/01/23 09:49:24;;;;;;;11.67;8.73;;;6.70;99.90;;;;;;5079632;28;20187;-77
2021/01/23 09:51:50;;;;;;;15.13;7.90;;;6.80;99.90;;;;;;5088936;28;20183;-77
2021/01/23 09:54:16;;;;;;;12.87;8.50;;;6.90;99.90;;;;;;5074496;28;20190;-77
2021/01/23 09:56:42;;;;;;;14.20;8.53;;;6.80;99.90;;;;;;5070773;28;20190;-76
2021/01/23 09:59:07;;;;;;;14.13;8.77;;;6.90;99.90;;;;;;5072409;28;20193;-76
2021/01/23 10:01:33;;;;;;;14.60;8.77;;;6.90;99.90;;;;;;5071917;28;20189;-76
2021/01/23 10:03:59;;;;;;;19.53;8.73;;;7.10;99.90;;;;;;5086505;28;20290;-77
2021/01/23 10:06:24;;;;;;;14.90;7.93;;;7.00;99.90;;;;;;5082090;28;20191;-77
2021/01/23 10:08:51;;;;;;;12.87;7.50;;;7.20;99.90;;;;;;5075185;28;20708;-77
2021/01/23 10:11:16;;;;;;;15.53;7.53;;;7.10;99.90;;;;;;5090913;28;20164;-76
2021/01/23 10:13:42;;;;;;;10.23;7.03;;;7.40;99.90;;;;;;5086681;28;20273;-77
2021/01/23 10:16:08;;;;;;;9.77;6.77;;;7.50;99.90;;;;;;5077882;28;20202;-77
2021/01/23 10:18:35;;;;;;;11.57;6.83;;;7.60;99.90;;;;;;5083383;28;20657;-76
2021/01/23 10:21:05;;;;;;;11.70;6.80;;;7.60;99.90;;;;;;5087012;28;20178;-77
2021/01/23 10:23:31;;;;;;;10.50;7.17;;;7.60;99.90;;;;;;5071585;28;20201;-77
2021/01/23 10:25:58;;;;;;;11.37;6.30;;;7.80;99.90;;;;;;5072133;28;20550;-77
2021/01/23 10:28:24;;;;;;;10.27;6.10;;;8.10;99.90;;;;;;5083042;28;20646;-76
2021/01/23 10:30:50;;;;;;;11.60;5.73;;;8.30;99.90;;;;;;5078731;28;20182;-76
2021/01/23 10:33:15;;;;;;;10.97;5.80;;;8.40;99.90;;;;;;5071973;28;20622;-76
2021/01/23 10:35:41;;;;;;;17.10;6.10;;;8.50;99.90;;;;;;5082044;28;20697;-77
2021/01/23 10:38:07;;;;;;;17.00;6.10;;;8.30;99.90;;;;;;5090820;28;20665;-77
2021/01/23 10:40:33;;;;;;;12.77;6.43;;;7.90;99.90;;;;;;5078257;28;20519;-76
2021/01/23 10:42:58;;;;;;;12.53;6.80;;;7.70;99.90;;;;;;5078362;28;21791;-76
2021/01/23 10:45:24;;;;;;;11.87;6.17;;;7.80;99.90;;;;;;5078558;28;20245;-76
2021/01/23 10:47:50;;;;;;;17.80;7.03;;;7.80;99.90;;;;;;5077455;28;20228;-76
2021/01/23 10:50:15;;;;;;;10.10;6.30;;;7.70;99.90;;;;;;5074783;28;20205;-76
2021/01/23 10:52:41;;;;;;;10.87;6.40;;;7.80;99.90;;;;;;5092527;28;20681;-76
2021/01/23 10:55:07;;;;;;;10.87;5.83;;;7.90;99.90;;;;;;5091324;28;20226;-76
2021/01/23 10:57:33;;;;;;;14.00;6.90;;;8.10;99.90;;;;;;5104896;28;20182;-76
2021/01/23 10:59:58;;;;;;;11.20;5.90;;;8.00;99.90;;;;;;5081511;28;20645;-76
2021/01/23 11:02:24;;;;;;;13.63;6.00;;;8.00;99.90;;;;;;5099595;28;20197;-76
2021/01/23 11:04:50;;;;;;;12.33;6.57;;;7.90;99.90;;;;;;5102360;28;20238;-75
2021/01/23 11:07:15;;;;;;;11.17;6.20;;;7.80;99.90;;;;;;5079153;28;20252;-76
2021/01/23 11:09:41;;;;;;;10.93;5.83;;;7.70;99.90;;;;;;5090122;28;20182;-75
2021/01/23 11:12:07;;;;;;;8.53;5.10;;;7.70;99.90;;;;;;5103016;28;20645;-76
2021/01/23 11:14:33;;;;;;;11.33;4.57;;;7.80;99.90;;;;;;5096883;28;20192;-75
2021/01/23 11:17:00;;;;;;;12.83;4.80;;;7.80;99.90;;;;;;5096080;28;20193;-75
2021/01/23 11:19:26;;;;;;;13.13;4.90;;;7.90;99.90;;;;;;5094974;28;20269;-76
2021/01/23 11:21:52;;;;;;;12.37;5.43;;;8.00;99.90;;;;;;5071792;28;20212;-76
2021/01/23 11:24:18;;;;;;;8.70;4.03;;;8.00;99.90;;;;;;5091864;28;20213;-76
2021/01/23 11:26:44;;;;;;;13.20;5.10;;;7.70;99.90;;;;;;5100049;28;20180;-76
2021/01/23 11:29:10;;;;;;;10.40;4.70;;;7.70;99.90;;;;;;5095076;28;20665;-75
2021/01/23 11:31:36;;;;;;;9.43;4.23;;;7.60;99.90;;;;;;5094032;28;20210;-75
2021/01/23 11:34:01;;;;;;;10.47;4.50;;;7.60;99.90;;;;;;5099309;28;20184;-76
2021/01/23 11:36:27;;;;;;;10.90;4.50;;;7.50;99.90;;;;;;5106370;28;20197;-76
2021/01/23 11:38:53;;;;;;;8.53;4.43;;;7.50;99.90;;;;;;5082066;28;20196;-76
2021/01/23 11:41:19;;;;;;;9.87;4.50;;;7.60;99.90;;;;;;5084198;28;20193;-75
2021/01/23 11:43:44;;;;;;;10.23;5.03;;;7.40;99.90;;;;;;5095131;28;21087;-76
2021/01/23 11:46:10;;;;;;;9.87;4.40;;;7.30;99.90;;;;;;5089045;28;20790;-76
2021/01/23 11:48:36;;;;;;;12.83;4.60;;;7.30;99.90;;;;;;5094947;28;20668;-76
2021/01/23 11:51:02;;;;;;;8.70;4.40;;;7.30;99.90;;;;;;5075747;28;20214;-76
2021/01/23 11:53:27;;;;;;;8.70;4.10;;;7.30;99.90;;;;;;5087837;28;20236;-76
2021/01/23 11:55:53;;;;;;;7.80;4.20;;;7.30;99.90;;;;;;5094774;28;20238;-76
2021/01/23 11:58:18;;;;;;;11.70;4.33;;;7.20;99.90;;;;;;5095133;28;20245;-77
2021/01/23 12:00:44;;;;;;;8.17;4.57;;;7.30;99.90;;;;;;5100488;28;20676;-77
2021/01/23 12:03:10;;;;;;;10.07;4.23;;;7.40;99.90;;;;;;5084324;28;20689;-76
2021/01/23 12:05:36;;;;;;;15.63;4.83;;;7.20;99.90;;;;;;5102940;28;20537;-76
2021/01/23 12:08:01;;;;;;;11.20;4.50;;;7.20;99.90;;;;;;5096771;28;20193;-75
2021/01/23 12:10:27;;;;;;;11.03;4.40;;;7.30;99.90;;;;;;5097161;28;20192;-76
2021/01/23 12:12:55;;;;;;;10.93;4.47;;;7.00;99.90;;;;;;5088792;28;20185;-76
2021/01/23 12:15:22;;;;;;;11.20;4.20;;;7.00;99.90;;;;;;5100326;28;20181;-76
2021/01/23 12:17:48;;;;;;;9.53;4.33;;;7.00;99.90;;;;;;5098949;28;20181;-76
2021/01/23 12:20:14;;;;;;;12.13;4.30;;;7.20;99.90;;;;;;5096501;28;20179;-76
2021/01/23 12:22:40;;;;;;;5.83;3.87;;;7.00;99.90;;;;;;5087861;28;20185;-76
2021/01/23 12:25:10;;;;;;;9.03;4.10;;;6.70;99.90;;;;;;5086699;28;20257;-76
2021/01/23 12:27:36;;;;;;;8.30;3.77;;;6.70;99.90;;;;;;5082612;28;20641;-76
2021/01/23 12:30:05;;;;;;;9.57;4.07;;;6.90;99.90;;;;;;5095812;28;20267;-76
2021/01/23 12:32:30;;;;;;;10.17;4.43;;;7.10;99.90;;;;;;5086764;28;20177;-76
2021/01/23 12:34:56;;;;;;;11.37;4.90;;;7.30;99.90;;;;;;5100529;28;20192;-76
2021/01/23 12:37:21;;;;;;;9.73;4.40;;;7.50;99.90;;;;;;5090623;28;20538;-75
2021/01/23 12:39:47;;;;;;;9.97;4.03;;;7.30;99.90;;;;;;5074526;28;20222;-76
2021/01/23 12:42:13;;;;;;;10.47;4.30;;;7.40;99.90;;;;;;5080458;28;20190;-76
2021/01/23 12:44:38;;;;;;;9.50;4.27;;;7.50;99.90;;;;;;5099304;28;20215;-76
2021/01/23 12:47:04;;;;;;;16.27;4.90;;;7.30;99.90;;;;;;5085759;28;20192;-76
2021/01/23 12:49:29;;;;;;;9.40;4.10;;;7.30;99.90;;;;;;5091023;28;20588;-76